Buoy 60728

sailwx.info

Track history (hours):
 
Tides and Currents Weather Stations Pressure Air Temp Water Temp Dewpoint Dewpoint Depression Visibility Wind Speed Wind Dir Waves Ship Positions

Min Long Yu F60728

Last reported at 2017-Nov-17 11:42 UTC. Time now 2017-Nov-17 17:50 UTC.
Position N 24°19' E 118°07'.

Length 22 m.

Type: Fishing. MMSI: 412445171.

Date/timePositionNaut miles runAvg speedWind from/ knotsBaromVisibWave heightAir tempDewpointWater temp
2017-Nov-17 11:42N 24°19' E 118°07'10 0.7
2017-Nov-16 21:51N 24°15' E 118°17'3 8.1
2017-Nov-16 21:28N 24°17' E 118°14'4 0.3
2017-Nov-16 10:02N 24°20' E 118°11'2 7.9
2017-Nov-16 09:49N 24°19' E 118°13'6 7.5
2017-Nov-16 09:05N 24°19' E 118°19'1 0.1
2017-Nov-15 16:30N 24°19' E 118°21'  
2017-Nov-10 12:09N 24°19' E 118°10'1 8.6
2017-Nov-10 12:00N 24°19' E 118°11'4 8.3
2017-Nov-10 11:30N 24°19' E 118°16'4 8.4
2017-Nov-10 11:00N 24°20' E 118°20'3 5.1
2017-Nov-10 10:20N 24°20' E 118°24'0 0.3
2017-Nov-10 09:59N 24°20' E 118°24'0 0.6
2017-Nov-10 09:29N 24°20' E 118°24'0 0.5
2017-Nov-10 08:46N 24°20' E 118°24'0 0.5
2017-Nov-10 08:26N 24°20' E 118°24'0 0.6
2017-Nov-10 07:59N 24°19' E 118°24'0 0.6
2017-Nov-10 07:26N 24°19' E 118°24'0 0.3
2017-Nov-10 06:58N 24°19' E 118°23'0 0.9
2017-Nov-10 06:28N 24°19' E 118°24'1 2.7
2017-Nov-10 06:00N 24°20' E 118°25'1 0.6
2017-Nov-10 03:57N 24°19' E 118°25'0 0.5
2017-Nov-10 03:30N 24°18' E 118°24'2 2.8
2017-Nov-10 02:58N 24°17' E 118°24'0 0.5
2017-Nov-10 02:18N 24°17' E 118°23'2 5.8
2017-Nov-10 02:00N 24°16' E 118°22'0 0.2
2017-Nov-10 01:18N 24°16' E 118°22'1 3.9
2017-Nov-10 01:00N 24°17' E 118°23'3 6.7
2017-Nov-10 00:29N 24°13' E 118°21'4 4.9
2017-Nov-09 23:40N 24°10' E 118°18'1 8.0
2017-Nov-09 23:30N 24°12' E 118°18'4 7.9
2017-Nov-09 23:00N 24°14' E 118°15'4 8.5
2017-Nov-09 22:30N 24°17' E 118°12'5 0.5
2017-Nov-09 11:35N 24°19' E 118°07'0 0.5
2017-Nov-09 11:28N 24°19' E 118°07'2 4.3
2017-Nov-09 11:00N 24°18' E 118°09'3 6.9
2017-Nov-09 10:30N 24°15' E 118°10'3 6.8
2017-Nov-09 10:00N 24°12' E 118°11'4 2.4
2017-Nov-09 08:32N 24°08' E 118°11'0 0.8
2017-Nov-09 08:29N 24°08' E 118°11'0 0.1
2017-Nov-09 07:07N 24°08' E 118°11'0 0.7
2017-Nov-09 06:58N 24°08' E 118°11'1 1.5
2017-Nov-09 06:29N 24°09' E 118°11'1 1.0
2017-Nov-09 05:53N 24°09' E 118°12'0 0.7
2017-Nov-09 05:29N 24°09' E 118°12'1 0.8
2017-Nov-09 04:43N 24°09' E 118°13'1 5.7
2017-Nov-09 04:28N 24°08' E 118°12'1 1.3
2017-Nov-09 03:54N 24°08' E 118°12'2 4.5
2017-Nov-09 03:30N 24°10' E 118°13'3 6.7
2017-Nov-09 03:00N 24°13' E 118°13'1 1.6
2017-Nov-09 02:30N 24°13' E 118°12'1 1.7
2017-Nov-09 01:58N 24°12' E 118°11'0 0.5
2017-Nov-09 01:29N 24°12' E 118°11'0 1.0
2017-Nov-09 01:00N 24°12' E 118°11'1 1.3
2017-Nov-09 00:30N 24°13' E 118°12'0 0.7
2017-Nov-08 23:59N 24°13' E 118°11'1 1.2
2017-Nov-08 23:28N 24°12' E 118°11'0 0.9
2017-Nov-08 23:00N 24°13' E 118°10'1 1.4
2017-Nov-08 22:29N 24°13' E 118°11'3 6.1
2017-Nov-08 22:00N 24°16' E 118°11'4 7.9
2017-Nov-08 21:30N 24°19' E 118°08'1 0.0
2017-Nov-07 11:49N 24°19' E 118°07'  
Track history (hours):
 
Tides and Currents Weather Stations Pressure Air Temp Water Temp Dewpoint Dewpoint Depression Visibility Wind Speed Wind Dir Waves Ship Positions

Min Long Yu F60728

Last reported at 2017-Nov-17 11:42 UTC. Time now 2017-Nov-17 17:50 UTC.
Position N 24°19' E 118°07'.

Length 22 m.

Type: Fishing. MMSI: 412445171.

Date/timePositionNaut miles runAvg speedWind from/ knotsBaromVisibWave heightAir tempDewpointWater temp
2017-Nov-17 11:42N 24°19' E 118°07'10 0.7
2017-Nov-16 21:51N 24°15' E 118°17'3 8.1
2017-Nov-16 21:28N 24°17' E 118°14'4 0.3
2017-Nov-16 10:02N 24°20' E 118°11'2 7.9
2017-Nov-16 09:49N 24°19' E 118°13'6 7.5
2017-Nov-16 09:05N 24°19' E 118°19'1 0.1
2017-Nov-15 16:30N 24°19' E 118°21'  
2017-Nov-10 12:09N 24°19' E 118°10'1 8.6
2017-Nov-10 12:00N 24°19' E 118°11'4 8.3
2017-Nov-10 11:30N 24°19' E 118°16'4 8.4
2017-Nov-10 11:00N 24°20' E 118°20'3 5.1
2017-Nov-10 10:20N 24°20' E 118°24'0 0.3
2017-Nov-10 09:59N 24°20' E 118°24'0 0.6
2017-Nov-10 09:29N 24°20' E 118°24'0 0.5
2017-Nov-10 08:46N 24°20' E 118°24'0 0.5
2017-Nov-10 08:26N 24°20' E 118°24'0 0.6
2017-Nov-10 07:59N 24°19' E 118°24'0 0.6
2017-Nov-10 07:26N 24°19' E 118°24'0 0.3
2017-Nov-10 06:58N 24°19' E 118°23'0 0.9
2017-Nov-10 06:28N 24°19' E 118°24'1 2.7
2017-Nov-10 06:00N 24°20' E 118°25'1 0.6
2017-Nov-10 03:57N 24°19' E 118°25'0 0.5
2017-Nov-10 03:30N 24°18' E 118°24'2 2.8
2017-Nov-10 02:58N 24°17' E 118°24'0 0.5
2017-Nov-10 02:18N 24°17' E 118°23'2 5.8
2017-Nov-10 02:00N 24°16' E 118°22'0 0.2
2017-Nov-10 01:18N 24°16' E 118°22'1 3.9
2017-Nov-10 01:00N 24°17' E 118°23'3 6.7
2017-Nov-10 00:29N 24°13' E 118°21'4 4.9
2017-Nov-09 23:40N 24°10' E 118°18'1 8.0
2017-Nov-09 23:30N 24°12' E 118°18'4 7.9
2017-Nov-09 23:00N 24°14' E 118°15'4 8.5
2017-Nov-09 22:30N 24°17' E 118°12'5 0.5
2017-Nov-09 11:35N 24°19' E 118°07'0 0.5
2017-Nov-09 11:28N 24°19' E 118°07'2 4.3
2017-Nov-09 11:00N 24°18' E 118°09'3 6.9
2017-Nov-09 10:30N 24°15' E 118°10'3 6.8
2017-Nov-09 10:00N 24°12' E 118°11'4 2.4
2017-Nov-09 08:32N 24°08' E 118°11'0 0.8
2017-Nov-09 08:29N 24°08' E 118°11'0 0.1
2017-Nov-09 07:07N 24°08' E 118°11'0 0.7
2017-Nov-09 06:58N 24°08' E 118°11'1 1.5
2017-Nov-09 06:29N 24°09' E 118°11'1 1.0
2017-Nov-09 05:53N 24°09' E 118°12'0 0.7
2017-Nov-09 05:29N 24°09' E 118°12'1 0.8
2017-Nov-09 04:43N 24°09' E 118°13'1 5.7
2017-Nov-09 04:28N 24°08' E 118°12'1 1.3
2017-Nov-09 03:54N 24°08' E 118°12'2 4.5
2017-Nov-09 03:30N 24°10' E 118°13'3 6.7
2017-Nov-09 03:00N 24°13' E 118°13'1 1.6
2017-Nov-09 02:30N 24°13' E 118°12'1 1.7
2017-Nov-09 01:58N 24°12' E 118°11'0 0.5
2017-Nov-09 01:29N 24°12' E 118°11'0 1.0
2017-Nov-09 01:00N 24°12' E 118°11'1 1.3
2017-Nov-09 00:30N 24°13' E 118°12'0 0.7
2017-Nov-08 23:59N 24°13' E 118°11'1 1.2
2017-Nov-08 23:28N 24°12' E 118°11'0 0.9
2017-Nov-08 23:00N 24°13' E 118°10'1 1.4
2017-Nov-08 22:29N 24°13' E 118°11'3 6.1
2017-Nov-08 22:00N 24°16' E 118°11'4 7.9
2017-Nov-08 21:30N 24°19' E 118°08'1 0.0
2017-Nov-07 11:49N 24°19' E 118°07'  

Dump ship's entire track history